CFG2YP LFMN-EDDM
Flight info
| Callsign | CFG2YP |
|---|---|
| Flight time | 1h 12m |
| Altitude | 32000 |
| Route | BASIP DCT ANAKI DCT TAGIP DCT GUNGO DCT IVKAL T102 NINUR T101 BETOS BETOS1B |
| Aircraft | B753/M-SDE2E3FGHIJ3J4J7RWXY/LB1 |
Departure
| Time | 2026-05-06 15:59 |
|---|---|
| Airport | Nice-Côte d'Azur Airport (LFMN) |
Arrival
| Time | 2026-05-06 17:11 |
|---|---|
| Airport | Munich Airport (EDDM) |
| Time | Latitude | Longitude | Altitude | Speed | Heading |
|---|---|---|---|---|---|
| 2026-05-06 15:59 | 43.58218 | 7.45010 | 13140 ft | 377 kts | 50° |
| 2026-05-06 15:59 | 43.59830 | 7.47815 | 13997 ft | 382 kts | 50° |
| 2026-05-06 16:00 | 43.61500 | 7.50722 | 14732 ft | 391 kts | 50° |
| 2026-05-06 16:00 | 43.63184 | 7.53638 | 15450 ft | 398 kts | 50° |
| 2026-05-06 16:00 | 43.64922 | 7.56644 | 16202 ft | 404 kts | 50° |
| 2026-05-06 16:00 | 43.66697 | 7.59713 | 16806 ft | 414 kts | 50° |
| 2026-05-06 16:01 | 43.68505 | 7.62840 | 17521 ft | 419 kts | 50° |
| 2026-05-06 16:01 | 43.70322 | 7.65987 | 18156 ft | 426 kts | 51° |
| 2026-05-06 16:01 | 43.72158 | 7.69167 | 18764 ft | 432 kts | 51° |
| 2026-05-06 16:01 | 43.74074 | 7.72419 | 19356 ft | 437 kts | 49° |
| 2026-05-06 16:02 | 43.76094 | 7.75553 | 19986 ft | 441 kts | 48° |
| 2026-05-06 16:02 | 43.78152 | 7.78761 | 20527 ft | 448 kts | 48° |
| 2026-05-06 16:02 | 43.80196 | 7.81962 | 21142 ft | 452 kts | 48° |
| 2026-05-06 16:02 | 43.82299 | 7.85259 | 21675 ft | 457 kts | 48° |
| 2026-05-06 16:03 | 43.84390 | 7.88542 | 22216 ft | 462 kts | 48° |
| 2026-05-06 16:03 | 43.86523 | 7.91896 | 22863 ft | 464 kts | 49° |
| 2026-05-06 16:03 | 43.88608 | 7.95307 | 23315 ft | 471 kts | 54° |
| 2026-05-06 16:03 | 43.90375 | 7.99119 | 23958 ft | 471 kts | 62° |
| 2026-05-06 16:04 | 43.92025 | 8.03092 | 24419 ft | 477 kts | 62° |
| 2026-05-06 16:04 | 43.93660 | 8.07043 | 24982 ft | 480 kts | 62° |
| 2026-05-06 16:04 | 43.95321 | 8.11093 | 25410 ft | 486 kts | 62° |
| 2026-05-06 16:04 | 43.96993 | 8.15182 | 25945 ft | 489 kts | 62° |
| 2026-05-06 16:05 | 43.98657 | 8.19265 | 26383 ft | 494 kts | 62° |
| 2026-05-06 16:05 | 44.00356 | 8.23446 | 26820 ft | 499 kts | 63° |
| 2026-05-06 16:05 | 44.02063 | 8.27648 | 27392 ft | 501 kts | 63° |
| 2026-05-06 16:05 | 44.03760 | 8.31841 | 27723 ft | 507 kts | 63° |
| 2026-05-06 16:06 | 44.05494 | 8.36125 | 28241 ft | 509 kts | 63° |
| 2026-05-06 16:06 | 44.07237 | 8.40441 | 28667 ft | 513 kts | 63° |
| 2026-05-06 16:06 | 44.08960 | 8.44712 | 29200 ft | 515 kts | 63° |
| 2026-05-06 16:06 | 44.10728 | 8.49109 | 29455 ft | 522 kts | 63° |
| 2026-05-06 16:07 | 44.12479 | 8.53463 | 29997 ft | 521 kts | 63° |
| 2026-05-06 16:07 | 44.14248 | 8.57873 | 30489 ft | 522 kts | 63° |
| 2026-05-06 16:07 | 44.16012 | 8.62270 | 31121 ft | 519 kts | 63° |
| 2026-05-06 16:07 | 44.17744 | 8.66598 | 31629 ft | 517 kts | 63° |
| 2026-05-06 16:08 | 44.19558 | 8.70986 | 31841 ft | 517 kts | 59° |
| 2026-05-06 16:08 | 44.21693 | 8.74990 | 31853 ft | 518 kts | 51° |
| 2026-05-06 16:08 | 44.26446 | 8.82587 | 31845 ft | 520 kts | 49° |
| 2026-05-06 16:09 | 44.31179 | 8.90154 | 31851 ft | 518 kts | 50° |
| 2026-05-06 16:09 | 44.35892 | 8.97696 | 31853 ft | 519 kts | 50° |
| 2026-05-06 16:10 | 44.40677 | 9.05354 | 31861 ft | 518 kts | 48° |
| 2026-05-06 16:10 | 44.46073 | 9.11859 | 31879 ft | 517 kts | 36° |
| 2026-05-06 16:11 | 44.51854 | 9.17894 | 31870 ft | 518 kts | 36° |
| 2026-05-06 16:11 | 44.57648 | 9.23916 | 31871 ft | 518 kts | 35° |
| 2026-05-06 16:12 | 44.63467 | 9.29964 | 31865 ft | 517 kts | 35° |
| 2026-05-06 16:12 | 44.69231 | 9.35963 | 31856 ft | 517 kts | 35° |
| 2026-05-06 16:13 | 44.74995 | 9.41977 | 31857 ft | 517 kts | 36° |
| 2026-05-06 16:13 | 44.80781 | 9.48030 | 31855 ft | 518 kts | 35° |
| 2026-05-06 16:14 | 44.86554 | 9.54085 | 31846 ft | 517 kts | 36° |
| 2026-05-06 16:14 | 44.92294 | 9.60120 | 31851 ft | 516 kts | 36° |
| 2026-05-06 16:15 | 44.97984 | 9.66116 | 31831 ft | 520 kts | 36° |
| 2026-05-06 16:15 | 45.03765 | 9.72225 | 31821 ft | 519 kts | 36° |
| 2026-05-06 16:16 | 45.09518 | 9.78322 | 31821 ft | 518 kts | 36° |
| 2026-05-06 16:16 | 45.15278 | 9.84440 | 31808 ft | 518 kts | 37° |
| 2026-05-06 16:17 | 45.21085 | 9.90624 | 31806 ft | 519 kts | 36° |
| 2026-05-06 16:17 | 45.26860 | 9.96790 | 31810 ft | 519 kts | 36° |
| 2026-05-06 16:18 | 45.32589 | 10.02923 | 31820 ft | 519 kts | 36° |
| 2026-05-06 16:18 | 45.38354 | 10.09111 | 31830 ft | 518 kts | 36° |
| 2026-05-06 16:19 | 45.44078 | 10.15272 | 31826 ft | 519 kts | 36° |
| 2026-05-06 16:19 | 45.49860 | 10.21508 | 31838 ft | 519 kts | 36° |
| 2026-05-06 16:20 | 45.55596 | 10.27715 | 31842 ft | 519 kts | 36° |
| 2026-05-06 16:20 | 45.61344 | 10.33949 | 31858 ft | 521 kts | 36° |
| 2026-05-06 16:21 | 45.67112 | 10.40221 | 31878 ft | 519 kts | 36° |
| 2026-05-06 16:21 | 45.72843 | 10.46472 | 31893 ft | 520 kts | 36° |
| 2026-05-06 16:22 | 45.78575 | 10.52738 | 31905 ft | 521 kts | 36° |
| 2026-05-06 16:22 | 45.84339 | 10.59054 | 31909 ft | 522 kts | 36° |
| 2026-05-06 16:23 | 45.90041 | 10.65324 | 31917 ft | 522 kts | 37° |
| 2026-05-06 16:23 | 45.96146 | 10.71094 | 31915 ft | 519 kts | 26° |
| 2026-05-06 16:24 | 46.02526 | 10.76003 | 31894 ft | 521 kts | 26° |
| 2026-05-06 16:24 | 46.08899 | 10.80919 | 31886 ft | 518 kts | 26° |
| 2026-05-06 16:25 | 46.15277 | 10.85843 | 31875 ft | 518 kts | 26° |
| 2026-05-06 16:25 | 46.21612 | 10.90747 | 31886 ft | 517 kts | 26° |
| 2026-05-06 16:26 | 46.27968 | 10.95677 | 31891 ft | 517 kts | 26° |
| 2026-05-06 16:26 | 46.34289 | 11.00594 | 31897 ft | 516 kts | 26° |
| 2026-05-06 16:27 | 46.40871 | 11.04635 | 31913 ft | 510 kts | 10° |
| 2026-05-06 16:27 | 46.47819 | 11.05782 | 31916 ft | 497 kts | 353° |
| 2026-05-06 16:28 | 46.54712 | 11.05453 | 31910 ft | 493 kts | 351° |
| 2026-05-06 16:28 | 46.61584 | 11.05013 | 31912 ft | 494 kts | 351° |
| 2026-05-06 16:29 | 46.68445 | 11.04532 | 31910 ft | 495 kts | 351° |
| 2026-05-06 16:29 | 46.75322 | 11.04039 | 31901 ft | 491 kts | 351° |
| 2026-05-06 16:30 | 46.80988 | 11.03649 | 31877 ft | 487 kts | 349° |
| 2026-05-06 16:30 | 46.85425 | 11.02831 | 30774 ft | 488 kts | 344° |
| 2026-05-06 16:30 | 46.88786 | 11.02083 | 30117 ft | 486 kts | 345° |
| 2026-05-06 16:31 | 46.92110 | 11.01415 | 29906 ft | 471 kts | 347° |
| 2026-05-06 16:31 | 46.95438 | 11.01219 | 29939 ft | 485 kts | 356° |
| 2026-05-06 16:31 | 46.98881 | 11.01619 | 29937 ft | 499 kts | 0° |
| 2026-05-06 16:31 | 47.02346 | 11.02105 | 29933 ft | 501 kts | 0° |
| 2026-05-06 16:32 | 47.09261 | 11.03115 | 29927 ft | 499 kts | 1° |
| 2026-05-06 16:32 | 47.15973 | 11.04123 | 29926 ft | 501 kts | 0° |
| 2026-05-06 16:33 | 47.22926 | 11.05177 | 29906 ft | 503 kts | 1° |
| 2026-05-06 16:34 | 47.33328 | 11.06768 | 29881 ft | 495 kts | 1° |
| 2026-05-06 16:34 | 47.36756 | 11.07297 | 29738 ft | 486 kts | 1° |
| 2026-05-06 16:34 | 47.40083 | 11.07806 | 29249 ft | 485 kts | 1° |
| 2026-05-06 16:34 | 47.43413 | 11.08318 | 28789 ft | 479 kts | 1° |
| 2026-05-06 16:35 | 47.46770 | 11.08836 | 28268 ft | 472 kts | 1° |
| 2026-05-06 16:35 | 47.50005 | 11.09334 | 27784 ft | 465 kts | 2° |
| 2026-05-06 16:35 | 47.53196 | 11.09880 | 27304 ft | 462 kts | 6° |
| 2026-05-06 16:35 | 47.56332 | 11.11017 | 26844 ft | 463 kts | 17° |
| 2026-05-06 16:36 | 47.59281 | 11.12875 | 26349 ft | 463 kts | 27° |
| 2026-05-06 16:36 | 47.62059 | 11.15169 | 25834 ft | 458 kts | 28° |
| 2026-05-06 16:36 | 47.64813 | 11.17497 | 25333 ft | 452 kts | 28° |
| 2026-05-06 16:36 | 47.67526 | 11.19815 | 24861 ft | 446 kts | 29° |
| 2026-05-06 16:37 | 47.70182 | 11.22104 | 24383 ft | 442 kts | 29° |
| 2026-05-06 16:37 | 47.72825 | 11.24337 | 23981 ft | 437 kts | 25° |
| 2026-05-06 16:37 | 47.75594 | 11.26096 | 23552 ft | 434 kts | 19° |
| 2026-05-06 16:37 | 47.78436 | 11.27696 | 23043 ft | 432 kts | 19° |
| 2026-05-06 16:38 | 47.81223 | 11.29267 | 22574 ft | 426 kts | 19° |
| 2026-05-06 16:38 | 47.83973 | 11.30807 | 22116 ft | 421 kts | 19° |
| 2026-05-06 16:38 | 47.86684 | 11.32320 | 21703 ft | 419 kts | 18° |
| 2026-05-06 16:38 | 47.89499 | 11.33370 | 21216 ft | 415 kts | 4° |
| 2026-05-06 16:39 | 47.92351 | 11.33689 | 20809 ft | 410 kts | 1° |
| 2026-05-06 16:39 | 47.95202 | 11.33963 | 20183 ft | 410 kts | 1° |
| 2026-05-06 16:39 | 47.98063 | 11.34226 | 19466 ft | 413 kts | 1° |
| 2026-05-06 16:39 | 48.00877 | 11.34477 | 19199 ft | 404 kts | 1° |
| 2026-05-06 16:40 | 48.03648 | 11.34747 | 18935 ft | 395 kts | 5° |
| 2026-05-06 16:40 | 48.06314 | 11.35689 | 18698 ft | 387 kts | 21° |
| 2026-05-06 16:40 | 48.08659 | 11.37541 | 18173 ft | 387 kts | 36° |
| 2026-05-06 16:40 | 48.10821 | 11.39987 | 17442 ft | 393 kts | 38° |
| 2026-05-06 16:41 | 48.12976 | 11.42497 | 16719 ft | 398 kts | 38° |
| 2026-05-06 16:41 | 48.15151 | 11.45072 | 15932 ft | 404 kts | 39° |
| 2026-05-06 16:41 | 48.17365 | 11.47715 | 15037 ft | 405 kts | 39° |
| 2026-05-06 16:41 | 48.19499 | 11.50278 | 14148 ft | 390 kts | 39° |
| 2026-05-06 16:42 | 48.21522 | 11.52932 | 13291 ft | 375 kts | 49° |
| 2026-05-06 16:42 | 48.22973 | 11.56059 | 12483 ft | 360 kts | 66° |
| 2026-05-06 16:42 | 48.23760 | 11.59485 | 11675 ft | 346 kts | 80° |
| 2026-05-06 16:42 | 48.24201 | 11.63007 | 10821 ft | 338 kts | 82° |
| 2026-05-06 16:43 | 48.24569 | 11.66432 | 9995 ft | 330 kts | 84° |
| 2026-05-06 16:43 | 48.24879 | 11.69723 | 9752 ft | 303 kts | 85° |
| 2026-05-06 16:43 | 48.25143 | 11.72711 | 9755 ft | 272 kts | 85° |
| 2026-05-06 16:43 | 48.25368 | 11.75417 | 9761 ft | 259 kts | 86° |
| 2026-05-06 16:44 | 48.25588 | 11.78197 | 9850 ft | 270 kts | 86° |
| 2026-05-06 16:44 | 48.25809 | 11.81038 | 9468 ft | 279 kts | 86° |
| 2026-05-06 16:44 | 48.26033 | 11.83933 | 8982 ft | 284 kts | 85° |
| 2026-05-06 16:44 | 48.26259 | 11.86882 | 8529 ft | 289 kts | 85° |
| 2026-05-06 16:45 | 48.26489 | 11.89898 | 8064 ft | 293 kts | 84° |
| 2026-05-06 16:45 | 48.26721 | 11.92963 | 7589 ft | 297 kts | 84° |
| 2026-05-06 16:45 | 48.26957 | 11.96089 | 7114 ft | 301 kts | 83° |
| 2026-05-06 16:45 | 48.27194 | 11.99241 | 6631 ft | 304 kts | 83° |
| 2026-05-06 16:46 | 48.27427 | 12.02350 | 6172 ft | 306 kts | 83° |
| 2026-05-06 16:46 | 48.27669 | 12.05574 | 5694 ft | 309 kts | 82° |
| 2026-05-06 16:46 | 48.27909 | 12.08790 | 5226 ft | 311 kts | 82° |
| 2026-05-06 16:46 | 48.28148 | 12.12018 | 4946 ft | 305 kts | 82° |
| 2026-05-06 16:47 | 48.28374 | 12.15089 | 4938 ft | 290 kts | 82° |
| 2026-05-06 16:47 | 48.28592 | 12.18056 | 4937 ft | 276 kts | 82° |
| 2026-05-06 16:47 | 48.28841 | 12.20827 | 4932 ft | 261 kts | 72° |
| 2026-05-06 16:47 | 48.29664 | 12.23084 | 4963 ft | 238 kts | 39° |
| 2026-05-06 16:48 | 48.31013 | 12.24239 | 4960 ft | 213 kts | 5° |
| 2026-05-06 16:48 | 48.32407 | 12.24014 | 4988 ft | 201 kts | 329° |
| 2026-05-06 16:48 | 48.33562 | 12.22832 | 4984 ft | 199 kts | 317° |
| 2026-05-06 16:48 | 48.34509 | 12.21361 | 4945 ft | 193 kts | 309° |
| 2026-05-06 16:49 | 48.35395 | 12.19834 | 4949 ft | 192 kts | 309° |
| 2026-05-06 16:49 | 48.36286 | 12.18308 | 4951 ft | 194 kts | 309° |
| 2026-05-06 16:49 | 48.36999 | 12.16653 | 4927 ft | 189 kts | 281° |
| 2026-05-06 16:49 | 48.36971 | 12.14702 | 4974 ft | 184 kts | 264° |
| 2026-05-06 16:50 | 48.36840 | 12.12793 | 4963 ft | 182 kts | 266° |
| 2026-05-06 16:50 | 48.36722 | 12.10949 | 4955 ft | 177 kts | 266° |
| 2026-05-06 16:50 | 48.36601 | 12.09141 | 4941 ft | 170 kts | 265° |
| 2026-05-06 16:50 | 48.36518 | 12.07944 | 4949 ft | 170 kts | 265° |
| 2026-05-06 16:51 | 48.36353 | 12.05575 | 4960 ft | 172 kts | 265° |
| 2026-05-06 16:51 | 48.36222 | 12.03735 | 4716 ft | 177 kts | 266° |
| 2026-05-06 16:51 | 48.36090 | 12.01928 | 4431 ft | 170 kts | 266° |
| 2026-05-06 16:51 | 48.35962 | 12.00175 | 4168 ft | 168 kts | 266° |
| 2026-05-06 16:52 | 48.35836 | 11.98459 | 3927 ft | 158 kts | 266° |
| 2026-05-06 16:52 | 48.35719 | 11.96908 | 3693 ft | 144 kts | 266° |
| 2026-05-06 16:52 | 48.35608 | 11.95411 | 3491 ft | 142 kts | 266° |
| 2026-05-06 16:52 | 48.35500 | 11.93946 | 3299 ft | 136 kts | 266° |
| 2026-05-06 16:53 | 48.35397 | 11.92584 | 3110 ft | 128 kts | 266° |
| 2026-05-06 16:53 | 48.35298 | 11.91254 | 2936 ft | 132 kts | 267° |
| 2026-05-06 16:53 | 48.35193 | 11.89859 | 2755 ft | 135 kts | 268° |
| 2026-05-06 16:53 | 48.35089 | 11.88475 | 2565 ft | 133 kts | 267° |
| 2026-05-06 16:54 | 48.34984 | 11.87074 | 2391 ft | 137 kts | 266° |
| 2026-05-06 16:54 | 48.34879 | 11.85628 | 2185 ft | 138 kts | 264° |
| 2026-05-06 16:54 | 48.34742 | 11.84197 | 2020 ft | 138 kts | 263° |
| 2026-05-06 16:54 | 48.34636 | 11.82737 | 1805 ft | 146 kts | 266° |
| 2026-05-06 16:55 | 48.34541 | 11.81159 | 1713 ft | 150 kts | 265° |
| 2026-05-06 16:55 | 48.34421 | 11.79673 | 1609 ft | 142 kts | 264° |
| 2026-05-06 16:55 | 48.34291 | 11.78028 | 1923 ft | 181 kts | 265° |
| 2026-05-06 16:55 | 48.34142 | 11.75912 | 2425 ft | 220 kts | 265° |
| 2026-05-06 16:56 | 48.33988 | 11.73741 | 3194 ft | 199 kts | 265° |
| 2026-05-06 16:56 | 48.33794 | 11.71762 | 3656 ft | 187 kts | 257° |
| 2026-05-06 16:56 | 48.33357 | 11.69937 | 3995 ft | 195 kts | 252° |
| 2026-05-06 16:56 | 48.32542 | 11.68262 | 4853 ft | 213 kts | 223° |
| 2026-05-06 16:57 | 48.31146 | 11.67351 | 4937 ft | 223 kts | 191° |
| 2026-05-06 16:57 | 48.29637 | 11.67449 | 4942 ft | 213 kts | 169° |
| 2026-05-06 16:57 | 48.28363 | 11.68590 | 4990 ft | 219 kts | 139° |
| 2026-05-06 16:57 | 48.27271 | 11.70249 | 4971 ft | 226 kts | 137° |
| 2026-05-06 16:58 | 48.26142 | 11.71892 | 4952 ft | 222 kts | 142° |
| 2026-05-06 16:58 | 48.24938 | 11.73452 | 4959 ft | 233 kts | 142° |
| 2026-05-06 16:58 | 48.23693 | 11.75064 | 4968 ft | 241 kts | 142° |
| 2026-05-06 16:58 | 48.22425 | 11.76708 | 4957 ft | 239 kts | 142° |
| 2026-05-06 16:59 | 48.21169 | 11.78323 | 4959 ft | 236 kts | 142° |
| 2026-05-06 16:59 | 48.19909 | 11.79944 | 4966 ft | 241 kts | 142° |
| 2026-05-06 16:59 | 48.18595 | 11.81641 | 4987 ft | 261 kts | 142° |
| 2026-05-06 16:59 | 48.17363 | 11.83681 | 4964 ft | 262 kts | 119° |
| 2026-05-06 17:00 | 48.16907 | 11.86252 | 4973 ft | 251 kts | 86° |
| 2026-05-06 17:00 | 48.17360 | 11.88676 | 4986 ft | 240 kts | 53° |
| 2026-05-06 17:00 | 48.18471 | 11.90514 | 4992 ft | 241 kts | 39° |
| 2026-05-06 17:00 | 48.19659 | 11.92317 | 4973 ft | 244 kts | 47° |
| 2026-05-06 17:01 | 48.20612 | 11.94452 | 4978 ft | 244 kts | 58° |
| 2026-05-06 17:01 | 48.21352 | 11.96720 | 4975 ft | 245 kts | 64° |
| 2026-05-06 17:01 | 48.21996 | 11.99099 | 4966 ft | 243 kts | 66° |
| 2026-05-06 17:01 | 48.22560 | 12.01468 | 4969 ft | 244 kts | 69° |
| 2026-05-06 17:02 | 48.23090 | 12.03894 | 4993 ft | 240 kts | 70° |
| 2026-05-06 17:02 | 48.23579 | 12.06256 | 4961 ft | 230 kts | 70° |
| 2026-05-06 17:02 | 48.24031 | 12.08503 | 4961 ft | 226 kts | 71° |
| 2026-05-06 17:02 | 48.24485 | 12.10794 | 4970 ft | 231 kts | 71° |
| 2026-05-06 17:03 | 48.24941 | 12.13129 | 4968 ft | 232 kts | 71° |
| 2026-05-06 17:03 | 48.25387 | 12.15440 | 4964 ft | 231 kts | 71° |
| 2026-05-06 17:03 | 48.25927 | 12.17717 | 4955 ft | 228 kts | 54° |
| 2026-05-06 17:03 | 48.27046 | 12.19279 | 4978 ft | 217 kts | 18° |
| 2026-05-06 17:04 | 48.28490 | 12.19670 | 4989 ft | 211 kts | 354° |
| 2026-05-06 17:04 | 48.29933 | 12.19612 | 5000 ft | 198 kts | 353° |
| 2026-05-06 17:04 | 48.31260 | 12.19504 | 4939 ft | 186 kts | 344° |
| 2026-05-06 17:04 | 48.32510 | 12.19012 | 4972 ft | 186 kts | 339° |
| 2026-05-06 17:05 | 48.33769 | 12.18463 | 4964 ft | 190 kts | 339° |
| 2026-05-06 17:05 | 48.35026 | 12.17912 | 4957 ft | 187 kts | 339° |
| 2026-05-06 17:05 | 48.36274 | 12.17363 | 4959 ft | 187 kts | 339° |
| 2026-05-06 17:05 | 48.37404 | 12.16461 | 4936 ft | 181 kts | 307° |
| 2026-05-06 17:06 | 48.37748 | 12.14701 | 4977 ft | 184 kts | 263° |
| 2026-05-06 17:06 | 48.37420 | 12.12837 | 4976 ft | 185 kts | 257° |
| 2026-05-06 17:06 | 48.37120 | 12.10988 | 4949 ft | 179 kts | 260° |
| 2026-05-06 17:06 | 48.36870 | 12.09120 | 4964 ft | 181 kts | 261° |
| 2026-05-06 17:07 | 48.36652 | 12.07264 | 4944 ft | 183 kts | 263° |
| 2026-05-06 17:07 | 48.36452 | 12.05338 | 4716 ft | 185 kts | 263° |
| 2026-05-06 17:07 | 48.36273 | 12.03447 | 4480 ft | 179 kts | 264° |
| 2026-05-06 17:07 | 48.36112 | 12.01622 | 4247 ft | 176 kts | 265° |
| 2026-05-06 17:08 | 48.35960 | 11.99787 | 4023 ft | 177 kts | 265° |
| 2026-05-06 17:08 | 48.35815 | 11.97970 | 3798 ft | 177 kts | 265° |
| 2026-05-06 17:08 | 48.35676 | 11.96207 | 3621 ft | 157 kts | 266° |
| 2026-05-06 17:08 | 48.35557 | 11.94686 | 3383 ft | 139 kts | 266° |
| 2026-05-06 17:09 | 48.35453 | 11.93327 | 3156 ft | 122 kts | 266° |
| 2026-05-06 17:09 | 48.35359 | 11.92070 | 3004 ft | 124 kts | 266° |
| 2026-05-06 17:09 | 48.35259 | 11.90718 | 2859 ft | 134 kts | 267° |
| 2026-05-06 17:09 | 48.35154 | 11.89321 | 2669 ft | 134 kts | 266° |
| 2026-05-06 17:10 | 48.35050 | 11.87947 | 2485 ft | 134 kts | 266° |
| 2026-05-06 17:10 | 48.34953 | 11.86537 | 2330 ft | 139 kts | 265° |
| 2026-05-06 17:10 | 48.34848 | 11.85079 | 2125 ft | 139 kts | 264° |
| 2026-05-06 17:10 | 48.34713 | 11.83628 | 1953 ft | 143 kts | 263° |
| 2026-05-06 17:11 | 48.34590 | 11.82155 | 1781 ft | 142 kts | 264° |
| 2026-05-06 17:11 | 48.34494 | 11.80674 | 1543 ft | 142 kts | 265° |
| 2026-05-06 17:11 | 48.34385 | 11.79244 | 1480 ft | 123 kts | 264° |
| 2026-05-06 17:11 | 48.34316 | 11.78335 | 1483 ft | 46 kts | 265° |
| 2026-05-06 17:12 | 48.34323 | 11.77991 | 1484 ft | 31 kts | 286° |
| 2026-05-06 17:12 | 48.34395 | 11.77716 | 1485 ft | 23 kts | 293° |
| 2026-05-06 17:12 | 48.34436 | 11.77574 | 1485 ft | 7 kts | 294° |
| 2026-05-06 17:12 | 48.34457 | 11.77511 | 1485 ft | 6 kts | 306° |
| 2026-05-06 17:13 | 48.34489 | 11.77464 | 1485 ft | 6 kts | 329° |
| 2026-05-06 17:13 | 48.34546 | 11.77436 | 1485 ft | 10 kts | 352° |
| 2026-05-06 17:13 | 48.34617 | 11.77460 | 1485 ft | 11 kts | 54° |
| 2026-05-06 17:13 | 48.34638 | 11.77588 | 1484 ft | 14 kts | 83° |
| 2026-05-06 17:14 | 48.34646 | 11.77682 | 1484 ft | 8 kts | 84° |
| 2026-05-06 17:14 | 48.34651 | 11.77757 | 1484 ft | 6 kts | 84° |
| 2026-05-06 17:14 | 48.34656 | 11.77823 | 1484 ft | 5 kts | 84° |
| 2026-05-06 17:14 | 48.34671 | 11.77875 | 1483 ft | 5 kts | 46° |
| 2026-05-06 17:15 | 48.34701 | 11.77888 | 1483 ft | 5 kts | 3° |
| 2026-05-06 17:15 | 48.34741 | 11.77886 | 1483 ft | 6 kts | 354° |
| 2026-05-06 17:15 | 48.34788 | 11.77878 | 1483 ft | 7 kts | 354° |
| 2026-05-06 17:15 | 48.34840 | 11.77870 | 1483 ft | 7 kts | 354° |
| 2026-05-06 17:16 | 48.34893 | 11.77860 | 1483 ft | 8 kts | 352° |
| 2026-05-06 17:16 | 48.34977 | 11.77845 | 1483 ft | 14 kts | 354° |
| 2026-05-06 17:16 | 48.35081 | 11.77827 | 1483 ft | 15 kts | 353° |
| 2026-05-06 17:16 | 48.35147 | 11.77823 | 1482 ft | 6 kts | 10° |
| 2026-05-06 17:17 | 48.35175 | 11.77862 | 1482 ft | 5 kts | 69° |
| 2026-05-06 17:17 | 48.35188 | 11.77959 | 1483 ft | 12 kts | 82° |
| 2026-05-06 17:17 | 48.35199 | 11.78089 | 1482 ft | 12 kts | 84° |
| 2026-05-06 17:17 | 48.35161 | 11.78187 | 1482 ft | 11 kts | 161° |
| 2026-05-06 17:18 | 48.35083 | 11.78206 | 1482 ft | 11 kts | 174° |
| 2026-05-06 17:18 | 48.35017 | 11.78218 | 1482 ft | 4 kts | 174° |
| 2026-05-06 17:18 | 48.34994 | 11.78229 | 1482 ft | 2 kts | 124° |
| 2026-05-06 17:18 | 48.34990 | 11.78264 | 1482 ft | 3 kts | 91° |
| 2026-05-06 17:19 | 48.34993 | 11.78316 | 1482 ft | 3 kts | 84° |
| 2026-05-06 17:19 | 48.34996 | 11.78358 | 1482 ft | 2 kts | 83° |
| 2026-05-06 17:19 | 48.34996 | 11.78360 | 1482 ft | 0 kts | 83° |